KALS

San Luis Valley Regional / Bergman Field Airport

Alamosa, Colorado, USA
METAR KALS 211252Z AUTO 36004KT 10SM CLR 16/11 A3040 RMK AO2 SLP193 T01610106
Observed Flight Rules
Jul-21 @ 12:52 UTC (59 minutes ago) Visual Flight Rules
Wind Visibility Clouds
360° at 4 knots 10 miles
  • Clear skies
Temperatures Readings
Current 16°C / 61°F
Dewpoint 11°C / 52°F
Humidity 72%
Altimeter 30.4" Hg
Pressure 1019.3 hPa
Elevation 2299
METAR KALS 211252Z AUTO 36004KT 10SM CLR 16/11 A3040 RMK AO2 SLP193 T01610106
Observed Flight Rules
Jul-21 @ 12:52 UTC
(59 minutes ago)
VFR
Wind Visibility
360° at 4 knots 10 miles
Clouds
  • Clear skies
Temperature Dewpoint
16°C / 61°F 11°C / 52°F
Humidity Altimeter Pressure
72% 30.4" Hg 1019.3 hPa